createdAt,value
2018-11-02T00:02:11.107Z,17.6
2018-11-02T00:07:09.307Z,17.6
2018-11-02T00:12:07.069Z,17.6
2018-11-02T00:17:05.286Z,17.6
2018-11-02T00:22:03.336Z,17.6
2018-11-02T00:27:01.559Z,17.5
2018-11-02T00:31:59.502Z,17.6
2018-11-02T00:36:57.987Z,17.6
2018-11-02T00:41:55.778Z,17.5
2018-11-02T00:46:53.502Z,17.5
2018-11-02T00:51:51.100Z,17.5
2018-11-02T00:56:48.952Z,17.5
2018-11-02T01:01:46.608Z,17.5
2018-11-02T01:06:44.383Z,17.5
2018-11-02T01:11:41.887Z,17.5
2018-11-02T01:16:39.812Z,17.4
2018-11-02T01:21:37.823Z,17.4
2018-11-02T01:26:35.587Z,17.4
2018-11-02T01:31:33.477Z,17.4
2018-11-02T01:36:31.046Z,17.4
2018-11-02T01:41:28.835Z,17.4
2018-11-02T01:46:25.856Z,17.4
2018-11-02T01:51:23.976Z,17.3
2018-11-02T01:56:21.892Z,17.3
2018-11-02T02:01:19.785Z,17.3
2018-11-02T02:06:17.447Z,17.3
2018-11-02T02:11:15.833Z,17.3
2018-11-02T02:16:13.533Z,17.3
2018-11-02T02:21:11.946Z,17.3
2018-11-02T02:26:09.479Z,17.2
2018-11-02T02:31:07.874Z,17.2
2018-11-02T02:36:05.485Z,17.2
2018-11-02T02:41:03.046Z,17.2
2018-11-02T02:46:01.206Z,17.2
2018-11-02T02:50:59.227Z,17.2
2018-11-02T02:55:56.854Z,17.2
2018-11-02T03:00:54.673Z,17.1
2018-11-02T03:05:52.237Z,17.1
2018-11-02T03:10:50.596Z,17
2018-11-02T03:15:48.842Z,17.1
2018-11-02T03:20:46.483Z,17.1
2018-11-02T03:25:44.231Z,17.1
2018-11-02T03:30:41.941Z,17.1
2018-11-02T03:35:39.723Z,17
2018-11-02T03:40:37.869Z,17
2018-11-02T03:45:36.069Z,17
2018-11-02T03:50:33.763Z,17
2018-11-02T03:55:31.898Z,17
2018-11-02T04:00:29.509Z,17
2018-11-02T04:05:27.688Z,17
2018-11-02T04:10:25.388Z,17
2018-11-02T04:15:22.982Z,16.9
2018-11-02T04:20:20.885Z,16.9
2018-11-02T04:25:18.924Z,16.9
2018-11-02T04:30:16.833Z,16.9
2018-11-02T04:35:14.614Z,16.9
2018-11-02T04:40:12.502Z,16.9
2018-11-02T04:45:09.530Z,16.9
2018-11-02T04:50:07.260Z,16.9
2018-11-02T04:55:04.793Z,16.8
2018-11-02T05:00:02.295Z,16.8
2018-11-02T05:05:00.156Z,16.8
2018-11-02T05:09:57.976Z,16.8
2018-11-02T05:14:56.458Z,16.8
2018-11-02T05:19:54.180Z,16.8
2018-11-02T05:24:51.969Z,16.8
2018-11-02T05:29:49.915Z,16.8
2018-11-02T05:34:47.875Z,16.7
2018-11-02T05:39:45.576Z,16.7
2018-11-02T05:44:43.413Z,16.7
2018-11-02T05:49:41.955Z,16.7
2018-11-02T05:54:40.051Z,16.7
2018-11-02T05:59:38.264Z,16.7
2018-11-02T06:04:36.281Z,16.7
2018-11-02T06:09:34.063Z,16.7
2018-11-02T06:14:31.673Z,16.5
2018-11-02T06:19:29.935Z,16.6
2018-11-02T06:24:28.120Z,16.6
2018-11-02T06:29:26.610Z,16.6
2018-11-02T06:34:24.870Z,16.6
2018-11-02T06:39:23.138Z,16.6
2018-11-02T06:44:20.543Z,16.6
2018-11-02T06:49:18.485Z,16.6
2018-11-02T06:54:16.105Z,16.6
2018-11-02T06:59:14.266Z,16.6
2018-11-02T07:39:10.775Z,16.6
2018-11-02T07:44:08.974Z,16.6
2018-11-02T07:49:07.298Z,16.6
2018-11-02T07:54:05.301Z,16.6
2018-11-02T07:59:03.017Z,16.7
2018-11-02T08:04:00.796Z,16.7
2018-11-02T08:08:58.557Z,16.7
2018-11-02T08:13:57.133Z,16.7
2018-11-02T08:18:57.267Z,16.8
2018-11-02T08:23:57.230Z,16.8
2018-11-02T08:28:57.015Z,16.8
2018-11-02T08:33:54.689Z,16.9
2018-11-02T08:38:52.635Z,16.9
2018-11-02T08:43:50.767Z,16.9
2018-11-02T08:48:48.959Z,16.9
2018-11-02T08:53:47.249Z,17
2018-11-02T08:58:45.751Z,17
2018-11-02T09:03:43.989Z,17
2018-11-02T09:08:41.071Z,17.1
2018-11-02T09:13:39.048Z,17.1
2018-11-02T09:18:37.036Z,17.2
2018-11-02T09:23:35.252Z,17.2
2018-11-02T09:28:33.068Z,17.2
2018-11-02T09:33:30.892Z,17.3
2018-11-02T09:38:28.908Z,17.3
2018-11-02T09:43:26.623Z,17.4
2018-11-02T09:48:24.961Z,17.4
2018-11-02T09:53:22.973Z,17.4
2018-11-02T09:58:20.742Z,17.5
2018-11-02T10:03:18.615Z,17.5
2018-11-02T10:08:17.029Z,17.6
2018-11-02T10:13:14.509Z,17.6
2018-11-02T10:18:12.440Z,17.7
2018-11-02T10:23:10.374Z,17.7
2018-11-02T10:28:08.686Z,17.8
2018-11-02T10:33:06.730Z,17.9
2018-11-02T10:38:04.733Z,17.9
2018-11-02T10:43:02.981Z,17.9
2018-11-02T10:48:03.023Z,18
2018-11-02T10:53:02.393Z,18
2018-11-02T10:58:01.096Z,18.1
2018-11-02T11:03:01.484Z,18.2
2018-11-02T11:08:00.298Z,18.2
2018-11-02T11:12:58.956Z,18.3
2018-11-02T11:17:57.540Z,18.3
2018-11-02T11:22:54.800Z,18.4
2018-11-02T11:27:52.736Z,18.5
2018-11-02T11:32:50.432Z,18.5
2018-11-02T11:37:48.825Z,18.6
2018-11-02T11:42:47.285Z,18.6
2018-11-02T11:47:46.360Z,18.7
2018-11-02T11:52:45.539Z,18.8
2018-11-02T11:57:44.360Z,18.8
2018-11-02T12:02:43.147Z,18.9
2018-11-02T12:07:41.540Z,18.9
2018-11-02T12:12:39.316Z,19
2018-11-02T12:17:37.771Z,19
2018-11-02T12:22:35.712Z,19.1
2018-11-02T12:27:33.699Z,19.2
2018-11-02T12:32:32.050Z,19.3
2018-11-02T12:37:29.457Z,19.3
2018-11-02T12:42:27.383Z,19.4
2018-11-02T12:47:25.339Z,19.4
2018-11-02T12:52:23.392Z,19.5
2018-11-02T12:57:21.770Z,19.6
2018-11-02T13:02:19.429Z,19.6
2018-11-02T13:07:17.937Z,19.7
2018-11-02T13:12:15.803Z,19.4
2018-11-02T13:17:13.986Z,19.4
2018-11-02T13:22:11.689Z,19.5
2018-11-02T13:27:10.049Z,20
2018-11-02T13:32:08.017Z,20
2018-11-02T13:37:05.816Z,20.1
2018-11-02T13:42:04.300Z,19.7
2018-11-02T13:47:01.837Z,20.2
2018-11-02T13:51:59.814Z,20.2
2018-11-02T13:56:57.710Z,20.3
2018-11-02T14:01:55.689Z,20.3
2018-11-02T14:06:53.846Z,20.4
2018-11-02T14:11:51.939Z,20.4
2018-11-02T14:16:50.662Z,20.5
2018-11-02T14:21:48.542Z,20.5
2018-11-02T14:26:46.519Z,20.6
2018-11-02T14:31:44.575Z,20.6
2018-11-02T14:36:43.034Z,20.6
2018-11-02T14:41:41.213Z,20.7
2018-11-02T14:46:39.081Z,20.7
2018-11-02T14:51:37.761Z,20.7
2018-11-02T14:56:35.557Z,20.8
2018-11-02T15:01:33.575Z,20.8
2018-11-02T15:06:31.915Z,20.8
2018-11-02T15:11:30.439Z,20.4
2018-11-02T15:16:28.529Z,20.8
2018-11-02T15:21:26.819Z,20.5
2018-11-02T15:26:25.297Z,20.9
2018-11-02T15:31:22.934Z,20.9
2018-11-02T15:36:20.955Z,20.9
2018-11-02T15:41:19.423Z,20.9
2018-11-02T15:46:17.548Z,20.9
2018-11-02T15:51:15.517Z,20.9
2018-11-02T15:56:14.055Z,20.9
2018-11-02T16:01:11.927Z,20.9
2018-11-02T16:06:09.616Z,20.9
2018-11-02T16:11:07.159Z,20.5
2018-11-02T16:16:05.487Z,20.5
2018-11-02T16:21:03.592Z,20.9
2018-11-02T16:26:01.463Z,20.9
2018-11-02T16:30:59.363Z,20.9
2018-11-02T16:35:57.948Z,20.9
2018-11-02T16:40:55.850Z,20.9
2018-11-02T16:45:53.747Z,20.9
2018-11-02T16:50:51.529Z,20.8
2018-11-02T16:55:49.458Z,20.8
2018-11-02T17:00:47.955Z,20.8
2018-11-02T17:05:45.871Z,20.8
2018-11-02T17:10:43.765Z,20.8
2018-11-02T17:15:41.730Z,20.8
2018-11-02T17:20:39.618Z,20.8
2018-11-02T17:25:38.068Z,20.4
2018-11-02T17:30:35.541Z,20.7
2018-11-02T17:35:33.816Z,20.3
2018-11-02T17:40:31.715Z,20.7
2018-11-02T17:45:29.597Z,20.6
2018-11-02T17:50:28.185Z,20.2
2018-11-02T17:55:26.423Z,20.2
2018-11-02T18:00:24.721Z,20.2
2018-11-02T18:05:22.930Z,20.1
2018-11-02T18:10:21.344Z,20.1
2018-11-02T18:15:19.494Z,20.1
2018-11-02T18:20:17.681Z,20
2018-11-02T18:25:15.753Z,20
2018-11-02T18:30:13.581Z,20.4
2018-11-02T18:35:11.788Z,20
2018-11-02T18:40:09.755Z,20.3
2018-11-02T18:45:07.986Z,19.9
2018-11-02T18:50:05.914Z,20.3
2018-11-02T18:55:03.839Z,20.2
2018-11-02T19:00:02.500Z,19.8
2018-11-02T19:05:00.750Z,19.8
2018-11-02T19:09:58.635Z,20.2
2018-11-02T19:14:57.477Z,19.7
2018-11-02T19:19:55.296Z,20.1
2018-11-02T19:24:53.230Z,20
2018-11-02T19:29:51.093Z,20
2018-11-02T19:34:49.191Z,20
2018-11-02T19:39:47.354Z,19.9
2018-11-02T19:44:44.982Z,19.9
2018-11-02T19:49:42.993Z,19.8
2018-11-02T19:54:40.600Z,19.8
2018-11-02T19:59:38.512Z,19.8
2018-11-02T20:04:36.897Z,19.7
2018-11-02T20:09:35.375Z,19.7
2018-11-02T20:14:33.631Z,19.7
2018-11-02T20:19:31.517Z,19.6
2018-11-02T20:24:28.655Z,19.6
2018-11-02T20:29:26.876Z,19.5
2018-11-02T20:34:24.845Z,19.5
2018-11-02T20:39:23.677Z,19.5
2018-11-02T20:44:21.862Z,19.4
2018-11-02T20:49:20.491Z,19
2018-11-02T20:54:18.493Z,19.3
2018-11-02T20:59:16.410Z,19.3
2018-11-02T21:04:14.666Z,19.3
2018-11-02T21:09:12.892Z,19.2
2018-11-02T21:14:11.581Z,19.2
2018-11-02T21:19:09.768Z,19.1
2018-11-02T21:24:07.674Z,19.1
2018-11-02T21:29:05.561Z,19.1
2018-11-02T21:34:03.522Z,19
2018-11-02T21:39:01.231Z,19
2018-11-02T21:43:59.112Z,18.9
2018-11-02T21:48:57.122Z,18.9
2018-11-02T21:53:54.797Z,18.9
2018-11-02T21:58:52.565Z,18.8
2018-11-02T22:03:50.564Z,18.8
2018-11-02T22:08:48.029Z,18.8
2018-11-02T22:13:45.676Z,18.7
2018-11-02T22:18:43.093Z,18.7
2018-11-02T22:23:41.226Z,18.6
2018-11-02T22:28:39.158Z,18.6
2018-11-02T22:33:37.071Z,18.5
2018-11-02T22:38:34.430Z,18.5
2018-11-02T22:43:32.700Z,18.5
2018-11-02T22:48:30.538Z,18.4
2018-11-02T22:53:28.995Z,18.4
2018-11-02T22:58:27.153Z,18.4
2018-11-02T23:03:25.415Z,18.3
2018-11-02T23:08:23.152Z,18.3
2018-11-02T23:13:21.513Z,18.2
2018-11-02T23:18:19.608Z,18.2
2018-11-02T23:23:16.999Z,18.2
2018-11-02T23:28:14.942Z,18.1
2018-11-02T23:33:12.420Z,18.1
2018-11-02T23:38:09.867Z,18
2018-11-02T23:43:08.532Z,18
2018-11-02T23:48:06.740Z,18
2018-11-02T23:53:04.786Z,17.9
2018-11-02T23:58:02.611Z,17.9
